createdAt,value
2018-12-08T00:00:41.522Z,60.71
2018-12-08T00:03:09.029Z,60.44
2018-12-08T00:05:36.497Z,60.77
2018-12-08T00:08:04.018Z,60.48
2018-12-08T00:10:31.424Z,60.38
2018-12-08T00:12:58.824Z,61.56
2018-12-08T00:15:26.228Z,60.78
2018-12-08T00:17:53.632Z,59.82
2018-12-08T00:20:21.038Z,59.96
2018-12-08T00:22:48.617Z,60.60
2018-12-08T00:25:16.037Z,60.71
2018-12-08T00:27:43.444Z,60.65
2018-12-08T00:30:23.495Z,60.26
2018-12-08T00:32:50.966Z,60.29
2018-12-08T00:35:18.370Z,59.30
2018-12-08T00:37:45.884Z,59.31
2018-12-08T00:40:13.301Z,57.88
2018-12-08T00:42:40.708Z,57.60
2018-12-08T00:45:08.132Z,57.11
2018-12-08T00:47:36.423Z,57.79
2018-12-08T00:50:04.764Z,58.35
2018-12-08T00:52:32.159Z,58.21
2018-12-08T00:55:00.322Z,58.34
2018-12-08T00:57:27.754Z,57.48
2018-12-08T00:59:55.289Z,56.50
2018-12-08T01:02:22.751Z,56.26
2018-12-08T01:04:50.208Z,56.31
2018-12-08T01:07:17.631Z,56.15
2018-12-08T01:09:45.067Z,56.60
2018-12-08T01:12:12.571Z,56.49
2018-12-08T01:14:39.911Z,56.34
2018-12-08T01:17:07.319Z,56.00
2018-12-08T01:19:34.781Z,55.80
2018-12-08T01:22:02.188Z,56.07
2018-12-08T01:24:29.612Z,56.44
2018-12-08T01:26:57.037Z,56.63
2018-12-08T01:29:24.443Z,56.28
2018-12-08T01:31:52.013Z,56.74
2018-12-08T01:34:19.415Z,57.00
2018-12-08T01:36:46.934Z,57.79
2018-12-08T01:39:14.532Z,58.51
2018-12-08T01:41:41.987Z,59.12
2018-12-08T01:44:10.320Z,59.16
2018-12-08T01:46:37.707Z,58.76
2018-12-08T01:49:05.138Z,58.71
2018-12-08T01:51:32.534Z,58.58
2018-12-08T01:53:59.977Z,58.29
2018-12-08T01:56:27.520Z,58.35
2018-12-08T01:58:54.925Z,58.67
2018-12-08T02:01:22.333Z,59.31
2018-12-08T02:03:49.731Z,60.21
2018-12-08T02:06:17.134Z,60.57
2018-12-08T02:08:44.542Z,60.13
2018-12-08T02:11:13.056Z,59.60
2018-12-08T02:13:40.455Z,59.75
2018-12-08T02:16:07.871Z,59.28
2018-12-08T02:18:35.672Z,58.11
2018-12-08T02:21:03.074Z,57.66
2018-12-08T02:23:30.683Z,57.93
2018-12-08T02:25:58.090Z,58.72
2018-12-08T02:28:25.492Z,59.87
2018-12-08T02:30:52.892Z,60.68
2018-12-08T02:33:20.854Z,61.41
2018-12-08T02:35:48.260Z,61.42
2018-12-08T02:38:15.673Z,61.68
2018-12-08T02:40:43.543Z,61.85
2018-12-08T02:43:10.947Z,62.30
2018-12-08T02:45:38.372Z,62.37
2018-12-08T02:48:05.906Z,61.97
2018-12-08T02:50:33.798Z,61.47
2018-12-08T02:53:01.183Z,61.32
2018-12-08T02:55:28.639Z,61.29
2018-12-08T02:57:56.057Z,61.75
2018-12-08T03:00:23.450Z,61.77
2018-12-08T03:02:50.878Z,61.67
2018-12-08T03:05:18.290Z,62.31
2018-12-08T03:07:45.696Z,62.58
2018-12-08T03:10:13.939Z,62.94
2018-12-08T03:12:41.447Z,62.90
2018-12-08T03:15:08.855Z,62.84
2018-12-08T03:17:36.288Z,63.04
2018-12-08T03:20:03.820Z,63.40
2018-12-08T03:22:31.553Z,63.58
2018-12-08T03:24:58.938Z,63.80
2018-12-08T03:27:26.501Z,63.75
2018-12-08T03:29:53.978Z,63.63
2018-12-08T03:32:21.383Z,63.61
2018-12-08T03:34:48.821Z,63.64
2018-12-08T03:37:16.215Z,63.82
2018-12-08T03:39:43.858Z,63.86
2018-12-08T03:42:11.298Z,64.31
2018-12-08T03:44:38.710Z,64.61
2018-12-08T03:47:07.093Z,64.52
2018-12-08T03:49:34.606Z,64.59
2018-12-08T03:52:01.969Z,64.29
2018-12-08T03:54:29.946Z,64.07
2018-12-08T03:56:57.339Z,63.63
2018-12-08T03:59:24.932Z,63.30
2018-12-08T04:01:52.365Z,64.01
2018-12-08T04:04:19.765Z,63.86
2018-12-08T04:06:47.165Z,63.34
2018-12-08T04:09:14.630Z,62.32
2018-12-08T04:11:42.004Z,62.50
2018-12-08T04:14:09.522Z,62.97
2018-12-08T04:16:36.947Z,63.44
2018-12-08T04:19:04.380Z,64.17
2018-12-08T04:21:31.809Z,64.91
2018-12-08T04:23:59.247Z,65.10
2018-12-08T04:26:26.675Z,65.27
2018-12-08T04:28:54.075Z,65.33
2018-12-08T04:31:22.956Z,65.15
2018-12-08T04:33:52.786Z,65.34
2018-12-08T04:36:20.431Z,65.49
2018-12-08T04:38:49.011Z,65.38
2018-12-08T04:41:17.304Z,65.24
2018-12-08T04:43:45.124Z,65.07
2018-12-08T04:46:12.704Z,65.40
2018-12-08T04:48:40.303Z,65.20
2018-12-08T04:51:12.690Z,64.91
2018-12-08T04:53:40.205Z,64.70
2018-12-08T04:56:08.923Z,64.67
2018-12-08T04:58:36.685Z,64.44
2018-12-08T05:01:05.315Z,64.50
2018-12-08T05:03:33.216Z,64.64
2018-12-08T05:06:01.664Z,64.81
2018-12-08T05:08:33.518Z,65.08
2018-12-08T05:11:02.320Z,65.46
2018-12-08T05:13:29.739Z,65.81
2018-12-08T05:15:57.151Z,66.76
2018-12-08T05:18:24.550Z,67.02
2018-12-08T05:20:51.944Z,67.15
2018-12-08T05:23:19.405Z,67.44
2018-12-08T05:25:46.805Z,66.94
2018-12-08T05:28:14.253Z,66.91
2018-12-08T05:30:41.694Z,66.94
2018-12-08T05:33:09.125Z,67.45
2018-12-08T05:35:37.138Z,67.74
2018-12-08T05:38:04.611Z,67.51
2018-12-08T05:40:32.064Z,67.33
2018-12-08T05:42:59.490Z,67.11
2018-12-08T05:45:26.997Z,67.17
2018-12-08T05:47:55.081Z,67.17
2018-12-08T05:50:22.538Z,67.37
2018-12-08T05:52:49.951Z,67.46
2018-12-08T05:55:17.377Z,67.63
2018-12-08T05:57:44.774Z,67.87
2018-12-08T06:00:12.179Z,68.08
2018-12-08T06:02:39.590Z,68.08
2018-12-08T06:05:07.077Z,68.52
2018-12-08T06:07:34.482Z,68.58
2018-12-08T06:10:01.904Z,68.84
2018-12-08T06:12:29.312Z,68.84
2018-12-08T06:14:56.757Z,69.37
2018-12-08T06:17:24.214Z,69.85
2018-12-08T06:19:51.755Z,70.54
2018-12-08T06:22:19.222Z,70.64
2018-12-08T06:24:46.663Z,71.01
2018-12-08T06:27:14.088Z,71.20
2018-12-08T06:29:41.521Z,71.32
2018-12-08T06:32:09.086Z,71.18
2018-12-08T06:34:36.518Z,71.04
2018-12-08T06:37:03.940Z,70.93
2018-12-08T06:39:31.331Z,71.33
2018-12-08T06:41:58.748Z,71.04
2018-12-08T06:44:26.147Z,70.80
2018-12-08T06:46:53.575Z,70.50
2018-12-08T06:49:20.985Z,70.61
2018-12-08T06:51:48.455Z,70.47
2018-12-08T06:54:15.858Z,70.28
2018-12-08T06:56:43.286Z,70.14
2018-12-08T06:59:10.692Z,69.86
2018-12-08T07:01:38.168Z,69.79
2018-12-08T07:04:05.722Z,69.60
2018-12-08T07:06:33.625Z,70.07
2018-12-08T07:09:01.043Z,70.32
2018-12-08T07:11:28.461Z,70.74
2018-12-08T07:13:55.903Z,70.48
2018-12-08T07:16:23.334Z,70.04
2018-12-08T07:18:50.827Z,70.26
2018-12-08T07:21:18.253Z,70.29
2018-12-08T07:23:45.655Z,70.65
2018-12-08T07:26:13.245Z,70.58
2018-12-08T07:28:40.703Z,70.40
2018-12-08T07:31:08.317Z,69.91
2018-12-08T07:33:35.756Z,70.08
2018-12-08T07:36:03.192Z,70.27
2018-12-08T07:38:31.497Z,70.31
2018-12-08T07:40:58.899Z,70.48
2018-12-08T07:43:27.565Z,70.28
2018-12-08T07:45:55.811Z,70.27
2018-12-08T07:48:23.212Z,70.47
2018-12-08T07:50:50.666Z,70.48
2018-12-08T07:53:18.066Z,70.10
2018-12-08T07:55:45.541Z,69.93
2018-12-08T07:58:12.967Z,69.90
2018-12-08T08:00:40.399Z,69.95
2018-12-08T08:03:07.825Z,69.66
2018-12-08T08:05:35.237Z,69.56
2018-12-08T08:08:02.654Z,69.13
2018-12-08T08:10:30.060Z,68.96
2018-12-08T08:12:57.476Z,68.67
2018-12-08T08:15:25.155Z,68.07
2018-12-08T08:17:52.571Z,68.10
2018-12-08T08:20:19.976Z,67.96
2018-12-08T08:22:47.387Z,67.55
2018-12-08T08:25:14.861Z,66.98
2018-12-08T08:27:42.341Z,66.12
2018-12-08T08:30:10.110Z,65.15
2018-12-08T08:32:37.588Z,65.02
2018-12-08T08:35:05.103Z,64.62
2018-12-08T08:37:32.837Z,64.24
2018-12-08T08:40:00.304Z,63.76
2018-12-08T08:42:27.718Z,64.21
2018-12-08T08:44:55.113Z,64.54
2018-12-08T08:47:22.515Z,64.93
2018-12-08T08:49:50.259Z,64.65
2018-12-08T08:52:17.658Z,63.93
2018-12-08T08:54:45.127Z,65.26
2018-12-08T08:57:12.567Z,65.58
2018-12-08T08:59:40.094Z,62.72
2018-12-08T09:02:07.502Z,58.52
2018-12-08T09:04:34.942Z,54.84
2018-12-08T09:07:02.563Z,52.60
2018-12-08T09:09:29.970Z,50.43
2018-12-08T09:11:58.111Z,49.78
2018-12-08T09:14:25.750Z,48.94
2018-12-08T09:16:53.341Z,47.82
2018-12-08T09:19:20.759Z,46.29
2018-12-08T09:21:48.195Z,45.14
2018-12-08T09:24:15.604Z,44.87
2018-12-08T09:26:43.165Z,44.14
2018-12-08T09:29:10.601Z,42.86
2018-12-08T09:31:38.020Z,42.51
2018-12-08T09:34:05.443Z,42.87
2018-12-08T09:36:32.911Z,43.11
2018-12-08T09:39:00.366Z,44.64
2018-12-08T09:41:27.843Z,43.79
2018-12-08T09:43:55.347Z,43.61
2018-12-08T09:46:22.830Z,43.14
2018-12-08T09:48:50.235Z,43.60
2018-12-08T09:51:17.871Z,44.08
2018-12-08T09:53:45.299Z,45.29
2018-12-08T09:56:12.761Z,44.26
2018-12-08T09:58:40.206Z,47.34
2018-12-08T10:01:07.658Z,50.37
2018-12-08T10:03:35.059Z,53.24
2018-12-08T10:06:02.484Z,53.20
2018-12-08T10:08:29.930Z,48.76
2018-12-08T10:10:57.351Z,45.55
2018-12-08T10:13:24.799Z,47.76
2018-12-08T10:15:52.220Z,50.90
2018-12-08T10:18:19.607Z,52.60
2018-12-08T10:20:47.138Z,54.17
2018-12-08T10:23:14.551Z,54.10
2018-12-08T10:25:42.283Z,49.55
2018-12-08T10:28:09.752Z,48.77
2018-12-08T10:30:37.235Z,50.98
2018-12-08T10:33:04.803Z,51.95
2018-12-08T10:35:32.223Z,50.54
2018-12-08T10:37:59.749Z,48.30
2018-12-08T10:40:27.183Z,50.45
2018-12-08T10:42:54.637Z,52.71
2018-12-08T10:45:22.051Z,54.01
2018-12-08T10:47:49.770Z,55.10
2018-12-08T10:50:17.456Z,55.06
2018-12-08T10:52:45.010Z,52.82
2018-12-08T10:55:12.435Z,52.63
2018-12-08T10:57:39.835Z,52.86
2018-12-08T11:00:07.886Z,53.14
2018-12-08T11:02:35.424Z,52.78
2018-12-08T11:05:02.843Z,54.09
2018-12-08T11:07:30.261Z,54.37
2018-12-08T11:09:58.601Z,50.87
2018-12-08T11:12:26.026Z,46.55
2018-12-08T11:15:00.600Z,45.50
2018-12-08T11:17:22.445Z,48.12
2018-12-08T11:19:50.623Z,48.79
2018-12-08T11:22:18.062Z,51.88
2018-12-08T11:24:45.518Z,52.87
2018-12-08T11:27:13.066Z,53.40
2018-12-08T11:29:40.933Z,55.11
2018-12-08T11:32:08.353Z,56.20
2018-12-08T11:34:36.280Z,57.30
2018-12-08T11:37:03.746Z,58.09
2018-12-08T11:39:32.283Z,58.13
2018-12-08T11:42:01.122Z,56.41
2018-12-08T11:44:28.979Z,57.23
2018-12-08T11:46:56.637Z,57.67
2018-12-08T11:49:24.119Z,57.64
2018-12-08T11:51:51.552Z,57.62
2018-12-08T11:54:19.849Z,57.33
2018-12-08T11:56:47.275Z,56.51
2018-12-08T11:59:14.754Z,55.61
2018-12-08T12:01:42.355Z,55.02
2018-12-08T12:04:10.163Z,55.11
2018-12-08T12:06:37.743Z,54.43
2018-12-08T12:09:05.389Z,54.38
2018-12-08T12:11:32.783Z,54.27
2018-12-08T12:14:00.605Z,54.50
2018-12-08T12:16:28.170Z,55.36
2018-12-08T12:18:55.568Z,56.24
2018-12-08T12:21:23.076Z,56.85
2018-12-08T12:23:50.795Z,57.68
2018-12-08T12:26:18.339Z,58.73
2018-12-08T12:28:45.848Z,59.09
2018-12-08T12:31:14.060Z,59.36
2018-12-08T12:33:41.610Z,59.21
2018-12-08T12:36:09.936Z,59.29
2018-12-08T12:38:38.175Z,59.41
2018-12-08T12:41:05.631Z,59.33
2018-12-08T12:43:33.346Z,59.29
2018-12-08T12:46:00.775Z,59.67
2018-12-08T12:48:28.239Z,59.86
2018-12-08T12:50:55.878Z,60.21
2018-12-08T12:53:23.293Z,60.63
2018-12-08T12:55:50.909Z,60.26
2018-12-08T12:58:18.305Z,60.23
2018-12-08T13:00:46.193Z,60.82
2018-12-08T13:03:14.312Z,61.56
2018-12-08T13:05:41.716Z,62.20
2018-12-08T13:08:09.451Z,62.28
2018-12-08T13:10:36.996Z,62.91
2018-12-08T13:13:04.703Z,63.57
2018-12-08T13:15:32.117Z,63.89
2018-12-08T13:17:59.520Z,64.01
2018-12-08T13:20:27.039Z,64.36
2018-12-08T13:22:54.706Z,64.41
2018-12-08T13:25:22.150Z,64.58
2018-12-08T13:27:49.619Z,64.61
2018-12-08T13:30:18.107Z,64.06
2018-12-08T13:32:45.599Z,63.51
2018-12-08T13:35:18.751Z,63.31
2018-12-08T13:37:46.512Z,63.40
2018-12-08T13:40:13.916Z,63.17
2018-12-08T13:42:41.419Z,63.13
2018-12-08T13:45:17.045Z,62.86
2018-12-08T13:47:44.494Z,62.69
2018-12-08T13:50:11.910Z,63.03
2018-12-08T13:52:39.461Z,62.48
2018-12-08T13:55:07.637Z,62.54
2018-12-08T13:57:35.291Z,62.38
2018-12-08T14:00:02.897Z,62.14
2018-12-08T14:02:31.438Z,61.98
2018-12-08T14:04:58.923Z,61.78
2018-12-08T14:07:26.484Z,62.52
2018-12-08T14:09:56.591Z,62.87
2018-12-08T14:12:24.129Z,63.58
2018-12-08T14:14:51.935Z,63.74
2018-12-08T14:17:19.338Z,64.62
2018-12-08T14:19:46.840Z,65.31
2018-12-08T14:22:16.178Z,65.99
2018-12-08T14:24:43.786Z,66.14
2018-12-08T14:27:11.219Z,66.63
2018-12-08T14:29:38.680Z,66.35
2018-12-08T14:32:06.662Z,65.63
2018-12-08T14:34:34.288Z,66.06
2018-12-08T14:37:01.925Z,66.08
2018-12-08T14:39:29.804Z,65.69
2018-12-08T14:41:58.231Z,65.59
2018-12-08T14:44:27.162Z,65.46
2018-12-08T14:46:54.628Z,65.63
2018-12-08T14:49:22.081Z,65.76
2018-12-08T14:51:49.943Z,65.89
2018-12-08T14:54:17.682Z,65.95
2018-12-08T14:56:45.154Z,65.91
2018-12-08T14:59:12.776Z,66.09
2018-12-08T15:01:40.292Z,66.53
2018-12-08T15:04:07.785Z,66.77
2018-12-08T15:06:37.088Z,66.82
2018-12-08T15:09:04.677Z,67.23
2018-12-08T15:11:32.140Z,67.35
2018-12-08T15:14:00.302Z,67.66
2018-12-08T15:16:32.105Z,67.81
2018-12-08T15:18:59.693Z,68.21
2018-12-08T15:21:27.167Z,68.28
2018-12-08T15:23:54.618Z,68.31
2018-12-08T15:26:22.243Z,68.20
2018-12-08T15:28:50.261Z,68.29
2018-12-08T15:31:17.703Z,67.90
2018-12-08T15:33:45.674Z,67.62
2018-12-08T15:36:13.099Z,67.23
2018-12-08T15:38:40.956Z,67.15
2018-12-08T15:41:09.270Z,66.39
2018-12-08T15:43:38.185Z,66.11
2018-12-08T15:46:10.630Z,66.03
2018-12-08T15:48:38.142Z,65.58
2018-12-08T15:51:05.557Z,65.79
2018-12-08T15:53:32.982Z,65.30
2018-12-08T15:56:00.588Z,65.28
2018-12-08T15:58:28.276Z,65.28
2018-12-08T16:00:55.752Z,65.08
2018-12-08T16:03:23.738Z,64.56
2018-12-08T16:05:51.504Z,64.51
2018-12-08T16:08:19.209Z,64.47
2018-12-08T16:10:46.668Z,64.30
2018-12-08T16:13:14.616Z,64.21
2018-12-08T16:15:42.063Z,64.51
2018-12-08T16:18:09.576Z,64.71
2018-12-08T16:20:36.982Z,64.50
2018-12-08T16:23:04.425Z,64.67
2018-12-08T16:25:32.497Z,64.96
2018-12-08T16:27:59.886Z,65.17
2018-12-08T16:30:27.323Z,65.13
2018-12-08T16:32:54.726Z,65.00
2018-12-08T16:35:22.642Z,65.09
2018-12-08T16:37:56.973Z,65.19
2018-12-08T16:40:17.630Z,65.12
2018-12-08T16:42:45.311Z,65.17
2018-12-08T16:45:12.719Z,65.27
2018-12-08T16:47:40.796Z,65.57
2018-12-08T16:50:09.546Z,65.78
2018-12-08T16:52:37.829Z,65.80
2018-12-08T16:55:06.225Z,66.11
2018-12-08T16:57:33.713Z,66.07
2018-12-08T17:00:02.046Z,65.80
2018-12-08T17:02:29.444Z,66.01
2018-12-08T17:04:57.046Z,66.33
2018-12-08T17:07:24.749Z,66.57
2018-12-08T17:09:52.452Z,67.16
2018-12-08T17:12:19.978Z,67.54
2018-12-08T17:14:47.887Z,67.86
2018-12-08T17:17:15.635Z,67.95
2018-12-08T17:19:43.366Z,67.98
2018-12-08T17:22:10.837Z,68.20
2018-12-08T17:24:38.476Z,68.39
2018-12-08T17:27:06.446Z,68.25
2018-12-08T17:29:33.921Z,68.59
2018-12-08T17:32:01.359Z,69.23
2018-12-08T17:34:29.031Z,69.59
2018-12-08T17:36:56.707Z,69.58
2018-12-08T17:39:24.435Z,70.08
2018-12-08T17:41:52.056Z,71.04
2018-12-08T17:44:20.369Z,71.94
2018-12-08T17:49:21.869Z,73.15
2018-12-08T17:51:51.327Z,73.24
2018-12-08T17:54:19.579Z,73.57
2018-12-08T17:56:47.749Z,74.00
2018-12-08T17:59:15.247Z,74.42
2018-12-08T18:01:42.675Z,74.87
2018-12-08T18:04:10.484Z,75.37
2018-12-08T18:06:38.446Z,75.44
2018-12-08T18:09:06.405Z,75.77
2018-12-08T18:11:34.108Z,76.10
2018-12-08T18:14:01.729Z,76.38
2018-12-08T18:16:30.274Z,76.47
2018-12-08T18:18:57.888Z,76.67
2018-12-08T18:21:25.576Z,76.91
2018-12-08T18:23:53.661Z,76.99
2018-12-08T18:26:23.083Z,77.38
2018-12-08T18:28:51.588Z,77.07
2018-12-08T18:31:19.089Z,76.31
2018-12-08T18:33:46.770Z,75.84
2018-12-08T18:36:16.008Z,74.58
2018-12-08T18:38:43.905Z,73.01
2018-12-08T18:41:11.351Z,72.12
2018-12-08T18:43:40.236Z,72.13
2018-12-08T18:46:07.814Z,73.25
2018-12-08T18:48:35.253Z,74.45
2018-12-08T18:51:02.857Z,75.11
2018-12-08T18:53:30.445Z,75.25
2018-12-08T18:55:58.121Z,75.47
2018-12-08T18:58:25.676Z,75.37
2018-12-08T19:00:53.171Z,75.36
2018-12-08T19:03:21.573Z,75.37
2018-12-08T19:05:49.601Z,75.58
2018-12-08T19:08:16.994Z,75.73
2018-12-08T19:10:45.147Z,75.17
2018-12-08T19:13:14.736Z,73.14
2018-12-08T19:15:42.288Z,71.32
2018-12-08T19:18:09.735Z,70.91
2018-12-08T19:20:37.817Z,70.69
2018-12-08T19:23:05.411Z,71.58
2018-12-08T19:25:32.891Z,72.49
2018-12-08T19:28:00.493Z,72.75
2018-12-08T19:30:27.933Z,72.66
2018-12-08T19:32:55.459Z,72.89
2018-12-08T19:35:22.967Z,73.63
2018-12-08T19:37:50.510Z,73.97
2018-12-08T19:40:18.004Z,74.43
2018-12-08T19:42:45.421Z,74.45
2018-12-08T19:45:13.128Z,74.49
2018-12-08T19:47:41.047Z,74.62
2018-12-08T19:50:08.671Z,74.95
2018-12-08T19:52:36.934Z,75.09
2018-12-08T19:55:04.338Z,74.87
2018-12-08T19:57:32.021Z,74.78
2018-12-08T19:59:59.418Z,74.52
2018-12-08T20:02:27.523Z,74.72
2018-12-08T20:04:54.931Z,75.02
2018-12-08T20:07:22.519Z,75.24
2018-12-08T20:09:50.070Z,75.78
2018-12-08T20:12:18.559Z,75.79
2018-12-08T20:14:45.061Z,75.78
2018-12-08T20:17:12.473Z,76.03
2018-12-08T20:19:40.226Z,76.48
2018-12-08T20:22:08.378Z,76.37
2018-12-08T20:24:35.843Z,76.30
2018-12-08T20:27:03.438Z,75.59
2018-12-08T20:29:31.154Z,75.19
2018-12-08T20:31:58.980Z,75.05
2018-12-08T20:34:27.508Z,74.70
2018-12-08T20:36:55.159Z,74.65
2018-12-08T20:39:22.691Z,74.91
2018-12-08T20:41:50.167Z,74.90
2018-12-08T20:44:17.948Z,74.98
2018-12-08T20:46:45.337Z,75.13
2018-12-08T20:49:12.761Z,75.19
2018-12-08T20:51:40.396Z,75.41
2018-12-08T20:54:07.770Z,75.06
2018-12-08T20:56:35.834Z,74.53
2018-12-08T20:59:03.649Z,74.92
2018-12-08T21:01:31.167Z,75.19
2018-12-08T21:03:58.622Z,75.24
2018-12-08T21:06:26.190Z,75.43
2018-12-08T21:08:54.639Z,75.39
2018-12-08T21:11:22.133Z,75.17
2018-12-08T21:13:49.681Z,75.18
2018-12-08T21:16:17.623Z,75.16
2018-12-08T21:18:45.139Z,74.77
2018-12-08T21:21:12.649Z,74.53
2018-12-08T21:23:40.160Z,74.30
2018-12-08T21:26:07.575Z,74.27
2018-12-08T21:28:35.646Z,74.16
2018-12-08T21:31:03.833Z,73.81
2018-12-08T21:33:32.241Z,73.30
2018-12-08T21:35:59.823Z,73.71
2018-12-08T21:38:27.958Z,73.81
2018-12-08T21:40:55.616Z,74.33
2018-12-08T21:43:23.287Z,74.50
2018-12-08T21:45:50.712Z,74.55
2018-12-08T21:48:18.582Z,74.43
2018-12-08T21:50:45.999Z,74.99
2018-12-08T21:53:13.397Z,75.10
2018-12-08T21:55:40.823Z,75.30
2018-12-08T21:58:08.216Z,75.54
2018-12-08T22:00:35.678Z,75.53
2018-12-08T22:03:03.142Z,75.13
2018-12-08T22:05:30.601Z,75.33
2018-12-08T22:07:58.029Z,75.89
2018-12-08T22:10:25.575Z,76.01
2018-12-08T22:12:53.033Z,75.98
2018-12-08T22:15:20.493Z,76.09
2018-12-08T22:17:47.893Z,76.14
2018-12-08T22:20:15.593Z,76.43
2018-12-08T22:22:43.081Z,76.88
2018-12-08T22:25:10.525Z,76.05
2018-12-08T22:27:37.928Z,75.18
2018-12-08T22:30:05.429Z,74.59
2018-12-08T22:32:32.903Z,74.38
2018-12-08T22:35:00.370Z,74.21
2018-12-08T22:37:29.102Z,74.23
2018-12-08T22:39:55.351Z,74.32
2018-12-08T22:42:23.518Z,74.20
2018-12-08T22:44:51.002Z,74.31
2018-12-08T22:47:18.539Z,74.35
2018-12-08T22:49:46.727Z,74.04
2018-12-08T22:52:14.241Z,73.73
2018-12-08T22:54:42.308Z,73.68
2018-12-08T22:57:09.894Z,73.80
2018-12-08T22:59:37.286Z,73.97
2018-12-08T23:02:04.986Z,74.15
2018-12-08T23:04:32.486Z,73.97
2018-12-08T23:07:01.027Z,73.21
2018-12-08T23:09:29.485Z,72.77
2018-12-08T23:11:56.908Z,72.37
2018-12-08T23:14:24.328Z,72.36
2018-12-08T23:16:52.084Z,72.13
2018-12-08T23:19:19.510Z,72.08
2018-12-08T23:21:47.732Z,71.94
2018-12-08T23:24:15.172Z,71.77
2018-12-08T23:26:42.656Z,71.76
2018-12-08T23:29:10.486Z,71.68
2018-12-08T23:31:38.033Z,72.06
2018-12-08T23:34:05.463Z,72.27
2018-12-08T23:36:32.950Z,72.34
2018-12-08T23:39:00.391Z,72.26
2018-12-08T23:41:27.890Z,72.33
2018-12-08T23:43:55.287Z,72.17
2018-12-08T23:46:22.733Z,72.13
2018-12-08T23:48:50.126Z,72.26
2018-12-08T23:51:18.589Z,72.77
2018-12-08T23:53:45.110Z,73.03
2018-12-08T23:56:12.536Z,73.00
2018-12-08T23:58:39.951Z,71.96
